Time;durP1;ratioP1;P1;durP2;ratioP2;P2;SDS_P1;SDS_P2;PMS_P1;PMS_P2;Temp;Humidity;BMP_temperature;BMP_pressure;BME280_temperature;BME280_humidity;BME280_pressure;Samples;Min_cycle;Max_cycle;Signal;HPM_P1;HPM_P2
2022/01/29 00:01:22;;;;;;;;;16.50;16.50;;;;;8.67;66.40;103126.56;5095956;27;45549;-69
2022/01/29 00:03:51;;;;;;;;;23.00;17.75;;;;;8.59;66.58;103125.31;5084008;27;47007;-72
2022/01/29 00:06:17;;;;;;;;;17.75;16.25;;;;;8.62;66.42;103130.69;5110411;27;45285;-71
2022/01/29 00:08:51;;;;;;;;;21.00;18.00;;;;;8.62;66.34;103122.84;5110632;27;45641;-69
2022/01/29 00:11:26;;;;;;;;;22.00;20.50;;;;;8.56;66.66;103112.09;5094304;27;45556;-69
2022/01/29 00:13:52;;;;;;;;;23.00;21.75;;;;;8.53;66.60;103104.13;5099304;27;45504;-74
2022/01/29 00:16:19;;;;;;;;;20.50;18.25;;;;;8.64;66.52;103120.31;5094913;27;45800;-73
2022/01/29 00:18:45;;;;;;;;;24.25;19.50;;;;;8.62;66.53;103108.91;5095267;27;45443;-71
2022/01/29 00:21:39;;;;;;;;;21.50;18.00;;;;;8.69;66.61;103103.13;5096202;27;45555;-73
2022/01/29 00:24:08;;;;;;;;;21.75;18.00;;;;;8.49;66.37;103070.81;5088218;27;47108;-69
2022/01/29 00:26:34;;;;;;;;;21.75;19.75;;;;;8.63;66.98;103100.22;5112187;27;45459;-68
2022/01/29 00:29:08;;;;;;;;;23.25;20.00;;;;;8.61;66.55;103083.56;5095497;27;45362;-69
2022/01/29 00:31:33;;;;;;;;;24.50;20.00;;;;;8.66;66.53;103087.28;5078482;27;45413;-70
2022/01/29 00:34:09;;;;;;;;;24.25;20.00;;;;;8.64;66.36;103084.63;5095284;27;45431;-68
2022/01/29 00:36:39;;;;;;;;;20.75;17.25;;;;;8.38;66.41;103032.84;5102405;27;45796;-68
2022/01/29 00:39:06;;;;;;;;;17.75;17.50;;;;;8.45;66.67;103050.63;5104380;27;45586;-71
2022/01/29 00:41:33;;;;;;;;;21.50;19.25;;;;;8.59;66.69;103069.53;5087477;27;45712;-72
2022/01/29 00:43:59;;;;;;;;;21.75;19.00;;;;;8.32;66.57;103020.38;5099768;27;46268;-69
2022/01/29 00:46:30;;;;;;;;;18.25;16.75;;;;;8.23;66.49;102999.97;5115703;27;45512;-69
2022/01/29 00:48:56;;;;;;;;;20.50;17.25;;;;;8.47;66.17;103028.97;5107627;27;45434;-67
2022/01/29 00:51:24;;;;;;;;;23.75;17.25;;;;;8.66;66.08;103069.00;5094982;27;45622;-70
2022/01/29 00:54:11;;;;;;;;;19.50;18.50;;;;;8.62;66.74;103043.59;5077058;27;45563;-71
2022/01/29 00:56:39;;;;;;;;;22.00;18.00;;;;;8.75;66.67;103060.72;5099208;27;45410;-69
2022/01/29 00:59:10;;;;;;;;;24.00;19.75;;;;;8.75;66.05;103056.38;5093065;27;45514;-70
2022/01/29 01:01:44;;;;;;;;;15.50;14.25;;;;;8.77;66.14;103061.69;5100668;27;45352;-74
2022/01/29 01:04:10;;;;;;;;;18.50;16.50;;;;;8.75;66.32;103056.38;5099200;27;45453;-72
2022/01/29 01:06:36;;;;;;;;;20.50;15.75;;;;;8.73;65.93;103052.78;5094661;27;45340;-75
2022/01/29 01:09:06;;;;;;;;;18.75;16.75;;;;;8.63;65.92;103030.56;5093393;27;45465;-73
2022/01/29 01:11:38;;;;;;;;;18.75;14.00;;;;;8.65;66.19;103028.94;5099034;27;45544;-71
2022/01/29 01:14:04;;;;;;;;;18.00;16.00;;;;;8.71;66.42;103038.78;5114785;27;45544;-72
2022/01/29 01:16:30;;;;;;;;;20.25;17.00;;;;;8.62;66.23;103031.41;5101022;27;45590;-70
2022/01/29 01:18:55;;;;;;;;;16.00;15.25;;;;;8.25;66.43;102966.97;5110591;27;45688;-72
2022/01/29 01:21:21;;;;;;;;;19.25;14.00;;;;;8.69;66.82;103043.06;5103299;27;45716;-70
2022/01/29 01:23:47;;;;;;;;;15.50;13.00;;;;;8.54;66.69;103017.09;5076422;27;46685;-71
2022/01/29 01:26:15;;;;;;;;;20.00;15.50;;;;;8.69;67.03;103048.28;5094314;27;45463;-68
2022/01/29 01:28:41;;;;;;;;;16.25;13.75;;;;;8.59;67.45;103031.28;5101800;27;45513;-72
2022/01/29 01:31:07;;;;;;;;;18.50;14.25;;;;;8.63;67.56;103032.31;5102274;27;45887;-73
2022/01/29 01:33:32;;;;;;;;;22.75;17.50;;;;;8.64;67.61;103031.50;5101284;27;45413;-70
2022/01/29 01:36:02;;;;;;;;;19.00;18.25;;;;;8.64;68.01;103047.16;5116587;27;45512;-71
2022/01/29 01:38:46;;;;;;;;;20.25;16.75;;;;;8.55;68.41;103041.50;5086344;27;45340;-72
2022/01/29 01:41:15;;;;;;;;;24.50;18.75;;;;;8.57;68.25;103050.31;5094430;27;45727;-69
2022/01/29 01:43:40;;;;;;;;;16.25;15.00;;;;;8.42;68.77;103037.41;5094405;27;46543;-68
2022/01/29 01:46:06;;;;;;;;;16.25;14.75;;;;;8.39;68.97;103035.50;5104281;27;45518;-70
2022/01/29 01:48:32;;;;;;;;;14.75;12.75;;;;;8.38;69.49;103033.72;5105491;27;45363;-69
2022/01/29 01:50:57;;;;;;;;;22.25;16.75;;;;;8.41;69.30;103044.34;5110616;27;45677;-70
2022/01/29 01:53:24;;;;;;;;;18.00;15.25;;;;;8.41;69.62;103033.91;5115039;27;46276;-69
2022/01/29 01:55:51;;;;;;;;;17.25;15.75;;;;;8.29;69.68;103010.69;5105313;27;45469;-70
2022/01/29 01:58:17;;;;;;;;;16.25;15.00;;;;;8.34;70.00;103031.78;5109169;27;45400;-69
2022/01/29 02:00:43;;;;;;;;;19.75;15.00;;;;;8.39;69.99;103029.41;5090628;27;45521;-69
2022/01/29 02:03:09;;;;;;;;;17.75;15.75;;;;;8.40;69.82;103028.59;5103404;27;45619;-68
2022/01/29 02:05:35;;;;;;;;;18.00;16.00;;;;;8.14;70.36;102988.16;5095236;27;45338;-72
2022/01/29 02:08:03;;;;;;;;;18.00;15.00;;;;;8.32;70.82;103029.94;5098610;27;45512;-70
2022/01/29 02:10:30;;;;;;;;;16.00;11.25;;;;;8.36;70.48;103027.53;5102573;27;45549;-70
2022/01/29 02:13:01;;;;;;;;;19.25;14.50;;;;;8.37;70.53;103011.03;5109804;27;46155;-68
2022/01/29 02:15:27;;;;;;;;;18.00;14.50;;;;;8.40;70.27;103019.06;5105735;27;45338;-69
2022/01/29 02:17:53;;;;;;;;;14.25;14.00;;;;;8.38;70.33;103007.63;5095927;27;45468;-70
2022/01/29 02:20:24;;;;;;;;;16.00;14.75;;;;;8.41;70.23;103007.78;5102722;27;45870;-69
2022/01/29 02:22:50;;;;;;;;;19.25;15.50;;;;;8.28;70.15;102990.63;5101463;27;45671;-68
2022/01/29 02:25:45;;;;;;;;;16.25;12.75;;;;;8.44;69.98;103000.09;5096629;27;45456;-70
2022/01/29 02:28:14;;;;;;;;;17.25;13.25;;;;;8.47;69.99;102994.09;5094480;27;45564;-69
2022/01/29 02:30:49;;;;;;;;;14.00;12.50;;;;;8.26;70.09;102958.31;5104239;27;45844;-72
2022/01/29 02:33:17;;;;;;;;;18.50;16.00;;;;;8.37;70.20;102981.41;5101950;27;45563;-69
2022/01/29 02:35:50;;;;;;;;;18.25;15.50;;;;;8.49;70.17;103000.31;5105222;27;45699;-68
2022/01/29 02:38:19;;;;;;;;;16.75;15.00;;;;;8.53;69.99;102988.31;5099406;27;45484;-69
2022/01/29 02:41:03;;;;;;;;;14.50;12.00;;;;;8.44;70.04;102976.59;5102161;27;45480;-68
2022/01/29 02:43:35;;;;;;;;;20.00;15.75;;;;;8.39;70.29;102975.44;5079005;27;47341;-68
2022/01/29 02:46:21;;;;;;;;;17.00;15.50;;;;;8.39;70.18;102964.13;5097885;27;45386;-71
2022/01/29 02:48:56;;;;;;;;;18.00;16.75;;;;;8.46;70.17;102969.72;5119321;27;45458;-69
2022/01/29 02:51:28;;;;;;;;;18.75;17.25;;;;;8.39;70.14;102949.34;5108280;27;45508;-70
2022/01/29 02:53:55;;;;;;;;;17.25;14.00;;;;;8.28;70.05;102922.75;5114906;27;45500;-69
2022/01/29 02:56:20;;;;;;;;;12.25;11.50;;;;;8.44;70.01;102942.63;5096756;27;45988;-70
2022/01/29 02:58:46;;;;;;;;;21.00;19.00;;;;;8.43;70.42;102934.75;5112627;27;45455;-69
2022/01/29 03:01:12;;;;;;;;;16.25;13.50;;;;;8.46;70.21;102938.38;5105200;27;45553;-70
2022/01/29 03:03:41;;;;;;;;;16.75;16.50;;;;;8.35;70.05;102917.78;5097291;27;46175;-69
2022/01/29 03:06:09;;;;;;;;;18.25;15.00;;;;;8.48;70.11;102941.97;5091904;27;45326;-69
2022/01/29 03:08:39;;;;;;;;;16.75;16.00;;;;;8.40;70.53;102927.66;5120604;27;45435;-70
2022/01/29 03:11:05;;;;;;;;;17.25;12.75;;;;;8.37;70.41;102922.25;5116477;27;45561;-70
2022/01/29 03:13:31;;;;;;;;;16.00;12.75;;;;;8.40;70.62;102930.28;5105257;27;46186;-70
2022/01/29 03:15:57;;;;;;;;;18.25;13.50;;;;;8.37;70.75;102927.47;5098040;27;45302;-68
2022/01/29 03:18:23;;;;;;;;;16.25;16.25;;;;;8.41;70.68;102919.00;5096980;27;45289;-70
2022/01/29 03:20:49;;;;;;;;;12.75;12.75;;;;;8.42;70.68;102920.81;5104268;27;45774;-70
2022/01/29 03:23:14;;;;;;;;;15.50;15.50;;;;;8.37;70.44;102914.41;5097482;27;46150;-70
2022/01/29 03:25:40;;;;;;;;;15.50;13.00;;;;;8.36;70.58;102915.25;5097699;27;45369;-70
2022/01/29 03:28:06;;;;;;;;;15.75;13.75;;;;;8.36;70.77;102907.41;5097486;27;45479;-70
2022/01/29 03:30:31;;;;;;;;;17.25;14.00;;;;;8.38;70.80;102912.72;5101831;27;45403;-69
2022/01/29 03:32:57;;;;;;;;;15.50;14.25;;;;;8.45;70.81;102920.03;5101894;27;45832;-70
2022/01/29 03:35:23;;;;;;;;;15.00;12.00;;;;;8.17;70.81;102879.56;5098960;27;45543;-69
2022/01/29 03:37:48;;;;;;;;;13.25;10.25;;;;;8.44;71.10;102923.47;5096283;27;45624;-69
2022/01/29 03:40:14;;;;;;;;;16.00;14.00;;;;;8.42;70.87;102925.09;5096924;27;45617;-68
2022/01/29 03:42:46;;;;;;;;;16.50;14.00;;;;;8.46;71.11;102929.66;5097475;27;47035;-69
2022/01/29 03:45:14;;;;;;;;;16.25;11.50;;;;;8.49;71.19;102933.31;5113091;27;45569;-69
2022/01/29 03:47:40;;;;;;;;;13.50;10.00;;;;;8.53;71.09;102934.34;5080666;27;45450;-70
2022/01/29 03:50:06;;;;;;;;;17.75;13.75;;;;;8.40;70.79;102913.69;5112125;27;45449;-70
2022/01/29 03:52:31;;;;;;;;;13.75;12.75;;;;;8.38;71.31;102907.50;5115416;27;45760;-69
2022/01/29 03:54:57;;;;;;;;;13.00;13.00;;;;;8.55;71.23;102930.06;5108702;27;45438;-69
2022/01/29 03:57:23;;;;;;;;;15.50;13.00;;;;;8.52;71.17;102924.72;5096894;27;45652;-68
2022/01/29 03:59:48;;;;;;;;;17.50;13.50;;;;;8.26;71.88;102900.88;5097415;27;45322;-71
2022/01/29 04:02:14;;;;;;;;;15.75;14.50;;;;;8.38;71.50;102911.00;5115971;27;45304;-69
2022/01/29 04:04:39;;;;;;;;;19.00;14.50;;;;;8.42;71.53;102927.72;5119035;27;45409;-69
2022/01/29 04:07:10;;;;;;;;;19.25;15.50;;;;;8.37;72.35;102927.47;5101332;27;45695;-70
2022/01/29 04:09:36;;;;;;;;;18.25;13.00;;;;;8.32;71.80;102930.72;5098325;27;45401;-71
2022/01/29 04:12:02;;;;;;;;;17.25;13.00;;;;;8.35;71.93;102929.16;5104761;27;46152;-71
2022/01/29 04:14:36;;;;;;;;;23.75;15.50;;;;;8.28;71.90;102900.94;5103794;27;45538;-68
2022/01/29 04:17:02;;;;;;;;;14.00;14.00;;;;;8.44;71.55;102926.06;5117078;27;45276;-73
2022/01/29 04:19:34;;;;;;;;;15.50;14.25;;;;;8.36;71.86;102909.16;5115638;27;45524;-69
2022/01/29 04:22:00;;;;;;;;;14.00;13.75;;;;;8.42;71.99;102925.09;5080419;27;47178;-72
2022/01/29 04:24:26;;;;;;;;;17.25;15.50;;;;;8.21;71.75;102881.50;5119242;27;45510;-71
2022/01/29 04:26:55;;;;;;;;;15.25;15.00;;;;;8.39;71.89;102898.84;5110360;27;45444;-69
2022/01/29 04:29:21;;;;;;;;;16.50;13.75;;;;;8.06;71.95;102842.53;5096100;27;45464;-71
2022/01/29 04:34:19;;;;;;;;;17.00;13.50;;;;;8.34;72.12;102898.63;5110415;27;45486;-68
2022/01/29 04:36:44;;;;;;;;;14.00;13.00;;;;;8.49;72.02;102921.94;5113097;27;45546;-70
2022/01/29 04:39:10;;;;;;;;;17.50;13.25;;;;;8.48;71.94;102914.97;5078088;27;46081;-73
2022/01/29 04:41:35;;;;;;;;;16.00;13.50;;;;;8.29;72.19;102887.97;5103807;27;46001;-70
2022/01/29 04:44:02;;;;;;;;;14.75;13.00;;;;;8.46;72.28;102909.66;5114314;27;45411;-69
2022/01/29 04:46:28;;;;;;;;;14.00;13.50;;;;;8.48;72.44;102910.63;5101871;27;45296;-70
2022/01/29 04:48:53;;;;;;;;;16.00;14.00;;;;;8.45;72.89;102910.50;5108772;27;45900;-69
2022/01/29 04:51:20;;;;;;;;;15.25;13.25;;;;;8.48;72.63;102913.22;5075866;27;45670;-70
2022/01/29 04:53:46;;;;;;;;;16.75;13.75;;;;;8.52;72.48;102910.75;5096060;27;45474;-71
2022/01/29 04:56:11;;;;;;;;;16.00;13.00;;;;;8.56;72.80;102917.91;5114683;27;45347;-71
2022/01/29 04:58:37;;;;;;;;;19.25;11.00;;;;;8.34;72.47;102877.72;5115271;27;45351;-72
2022/01/29 05:01:04;;;;;;;;;15.75;14.00;;;;;8.53;72.53;102913.44;5115066;27;46372;-73
2022/01/29 05:03:30;;;;;;;;;15.00;13.50;;;;;8.56;72.69;102905.72;5115086;27;45478;-70
2022/01/29 05:05:56;;;;;;;;;17.50;16.00;;;;;8.39;72.51;102868.38;5107817;27;45669;-69
2022/01/29 05:08:22;;;;;;;;;17.00;13.75;;;;;8.46;72.78;102896.59;5096530;27;45391;-69
2022/01/29 05:10:48;;;;;;;;;12.50;12.50;;;;;8.42;72.70;102889.47;5118119;27;46626;-70
2022/01/29 05:13:18;;;;;;;;;14.50;13.75;;;;;8.53;72.75;102891.66;5117833;27;45409;-70
2022/01/29 05:16:06;;;;;;;;;18.25;17.00;;;;;8.54;72.95;102893.44;5110252;27;45437;-71
2022/01/29 05:27:00;;;;;;;;;16.25;15.50;;;;;8.59;72.74;102891.91;5103668;27;45507;-67
2022/01/29 05:29:31;;;;;;;;;16.25;15.00;;;;;8.70;72.67;102898.50;5094619;27;45396;-70
2022/01/29 05:31:58;;;;;;;;;14.25;11.50;;;;;8.74;72.47;102902.19;5113125;27;45548;-71
2022/01/29 05:34:24;;;;;;;;;16.75;12.75;;;;;8.68;72.72;102894.94;5092600;27;45951;-71
2022/01/29 05:36:50;;;;;;;;;14.75;13.00;;;;;8.78;72.52;102902.38;5094426;27;45577;-70
2022/01/29 05:39:16;;;;;;;;;15.50;13.50;;;;;8.70;72.61;102888.94;5095188;27;45451;-71
2022/01/29 05:41:42;;;;;;;;;12.00;12.00;;;;;8.74;72.69;102891.72;5104048;27;46659;-69
2022/01/29 05:44:08;;;;;;;;;14.75;14.75;;;;;8.86;72.31;102905.31;5106253;27;45440;-69
2022/01/29 05:46:34;;;;;;;;;13.00;12.00;;;;;8.87;72.53;102897.56;5099472;27;45601;-71
2022/01/29 05:48:59;;;;;;;;;14.50;11.25;;;;;8.79;72.75;102875.41;5097883;27;45690;-68
2022/01/29 05:51:29;;;;;;;;;16.00;14.00;;;;;8.89;72.26;102908.94;5109433;27;46030;-69
2022/01/29 05:53:59;;;;;;;;;14.00;13.00;;;;;8.91;72.48;102891.63;5098528;27;45733;-69
2022/01/29 05:56:26;;;;;;;;;17.25;16.00;;;;;8.93;72.79;102896.91;5089941;27;45404;-69
2022/01/29 05:58:52;;;;;;;;;18.75;12.75;;;;;8.89;72.53;102884.53;5098066;27;45326;-68
2022/01/29 06:01:18;;;;;;;;;17.50;14.00;;;;;8.79;72.65;102858.84;5110871;27;46012;-69
2022/01/29 06:03:44;;;;;;;;;15.25;14.25;;;;;8.95;72.73;102894.38;5114186;27;45491;-69
2022/01/29 06:06:10;;;;;;;;;17.75;13.50;;;;;8.90;72.71;102875.88;5078890;27;45868;-70
2022/01/29 06:08:35;;;;;;;;;13.75;13.00;;;;;8.97;72.45;102885.78;5079228;27;45501;-69
2022/01/29 06:11:01;;;;;;;;;15.50;12.25;;;;;8.99;72.61;102891.06;5100030;27;45380;-71
2022/01/29 06:13:27;;;;;;;;;15.00;14.00;;;;;8.97;72.63;102877.03;5111301;27;45828;-70
2022/01/29 06:15:53;;;;;;;;;16.75;14.25;;;;;8.99;72.67;102880.59;5100237;27;45482;-70
2022/01/29 06:18:23;;;;;;;;;16.00;14.00;;;;;8.93;72.84;102883.84;5107848;27;45389;-69
2022/01/29 06:20:51;;;;;;;;;14.25;13.00;;;;;8.81;72.92;102855.47;5107562;27;46110;-72
2022/01/29 06:23:20;;;;;;;;;12.50;11.00;;;;;9.00;72.90;102887.63;5098282;27;45402;-67
2022/01/29 06:25:46;;;;;;;;;16.25;13.00;;;;;9.03;72.59;102892.97;5114874;27;45475;-68
2022/01/29 06:28:12;;;;;;;;;13.00;11.00;;;;;9.02;72.61;102885.97;5106815;27;45319;-69
2022/01/29 06:30:37;;;;;;;;;14.00;12.00;;;;;9.02;72.53;102897.31;5082962;27;48180;-70
2022/01/29 06:33:08;;;;;;;;;13.50;12.00;;;;;8.98;73.00;102882.31;5115724;27;45971;-70
2022/01/29 06:35:34;;;;;;;;;15.50;14.00;;;;;9.03;72.82;102893.88;5115767;27;45513;-72
2022/01/29 06:38:00;;;;;;;;;16.25;14.00;;;;;8.99;73.18;102888.44;5103138;27;45735;-70
2022/01/29 06:40:25;;;;;;;;;17.75;13.75;;;;;9.06;73.05;102891.41;5097436;27;45591;-70
2022/01/29 06:42:51;;;;;;;;;16.75;14.25;;;;;9.00;72.88;102871.94;5115215;27;45440;-71
2022/01/29 06:45:16;;;;;;;;;14.75;13.25;;;;;9.06;73.15;102883.56;5108892;27;45505;-70
2022/01/29 06:47:42;;;;;;;;;15.50;12.00;;;;;9.08;73.07;102894.06;5097093;27;45446;-70
2022/01/29 06:50:08;;;;;;;;;13.25;13.25;;;;;9.09;72.93;102888.03;5111645;27;46272;-72
2022/01/29 06:52:33;;;;;;;;;17.00;12.25;;;;;9.03;73.21;102864.22;5097888;27;45733;-70
2022/01/29 06:54:59;;;;;;;;;12.75;12.00;;;;;9.10;73.24;102885.44;5096793;27;45516;-70
2022/01/29 06:57:25;;;;;;;;;15.25;13.00;;;;;9.03;73.03;102875.56;5111993;27;45698;-70
2022/01/29 06:59:51;;;;;;;;;15.25;14.00;;;;;9.03;73.32;102870.34;5111858;27;45447;-70
2022/01/29 07:02:16;;;;;;;;;14.75;13.00;;;;;8.90;73.38;102858.47;5099846;27;45501;-70
2022/01/29 07:04:42;;;;;;;;;17.75;15.00;;;;;9.00;73.34;102870.22;5111886;27;45379;-69
2022/01/29 07:07:07;;;;;;;;;18.50;13.50;;;;;9.05;73.23;102883.50;5101010;27;45683;-69
2022/01/29 07:09:33;;;;;;;;;16.75;13.75;;;;;9.01;73.11;102872.00;5096339;27;45448;-70
2022/01/29 07:12:08;;;;;;;;;20.00;14.00;;;;;8.94;73.22;102866.44;5099702;27;45320;-70
2022/01/29 07:14:37;;;;;;;;;16.25;13.00;;;;;9.04;73.26;102872.13;5116315;27;45315;-70
2022/01/29 07:17:04;;;;;;;;;17.25;11.50;;;;;9.04;73.39;102874.75;5114583;27;45348;-70
2022/01/29 07:19:30;;;;;;;;;15.00;15.00;;;;;8.90;73.17;102845.41;5096008;27;45657;-70
2022/01/29 07:21:56;;;;;;;;;14.75;13.00;;;;;9.15;73.69;102874.31;5095668;27;45633;-70
2022/01/29 07:24:21;;;;;;;;;16.50;14.75;;;;;9.14;73.28;102865.56;5096654;27;45872;-69
2022/01/29 07:26:47;;;;;;;;;50.50;41.00;;;;;9.02;73.42;102842.44;5104197;27;45542;-70
2022/01/29 07:29:12;;;;;;;;;17.25;15.00;;;;;9.09;73.19;102854.94;5116404;27;45577;-70
2022/01/29 07:31:39;;;;;;;;;17.75;14.00;;;;;9.22;73.35;102871.13;5114878;27;45463;-70
2022/01/29 07:34:04;;;;;;;;;12.50;11.25;;;;;9.22;73.21;102874.63;5096354;27;45570;-69
2022/01/29 07:36:30;;;;;;;;;14.75;12.75;;;;;9.23;72.98;102867.66;5099896;27;45380;-68
2022/01/29 07:38:55;;;;;;;;;16.75;14.00;;;;;9.22;73.07;102868.50;5101931;27;46102;-68
2022/01/29 07:41:21;;;;;;;;;15.75;13.00;;;;;9.25;73.30;102874.75;5096135;27;45382;-70
2022/01/29 07:43:46;;;;;;;;;13.75;12.50;;;;;9.15;72.86;102859.50;5100213;27;45621;-70
2022/01/29 07:46:12;;;;;;;;;11.00;9.75;;;;;9.33;73.15;102882.94;5096116;27;45658;-70
2022/01/29 07:48:38;;;;;;;;;14.25;12.25;;;;;9.27;72.78;102869.59;5096806;27;46000;-69
2022/01/29 07:51:03;;;;;;;;;11.75;10.50;;;;;9.37;72.87;102883.94;5096820;27;46062;-70
2022/01/29 07:53:30;;;;;;;;;9.50;9.50;;;;;9.30;73.16;102870.63;5099457;27;45919;-69
2022/01/29 07:55:55;;;;;;;;;13.25;12.00;;;;;9.15;72.85;102835.97;5109387;27;46399;-70
2022/01/29 07:58:22;;;;;;;;;13.00;11.00;;;;;9.39;72.72;102880.53;5098592;27;46092;-70
2022/01/29 08:00:48;;;;;;;;;14.00;10.00;;;;;9.40;72.87;102871.00;5100758;27;45515;-70
2022/01/29 08:03:13;;;;;;;;;14.00;10.00;;;;;9.36;72.79;102863.84;5103045;27;45593;-71
2022/01/29 08:05:39;;;;;;;;;9.00;9.00;;;;;9.45;72.78;102878.19;5099471;27;45602;-68
2022/01/29 08:08:05;;;;;;;;;9.50;9.50;;;;;9.44;72.74;102865.03;5103413;27;45471;-71
2022/01/29 08:10:34;;;;;;;;;12.75;10.00;;;;;9.40;72.85;102855.31;5095410;27;45566;-70
2022/01/29 08:12:59;;;;;;;;;9.50;8.75;;;;;9.50;72.70;102870.53;5097730;27;45641;-70
2022/01/29 08:15:25;;;;;;;;;12.25;9.00;;;;;9.53;72.84;102878.50;5099927;27;45379;-68
2022/01/29 08:17:50;;;;;;;;;13.75;11.75;;;;;9.51;72.73;102860.13;5105745;27;45428;-70
2022/01/29 08:20:16;;;;;;;;;7.00;7.00;;;;;9.57;72.67;102862.09;5095343;27;45348;-70
2022/01/29 08:22:42;;;;;;;;;9.25;8.00;;;;;9.48;72.93;102840.81;5111922;27;45452;-71
2022/01/29 08:25:08;;;;;;;;;6.00;6.00;;;;;9.55;73.01;102853.28;5119521;27;45639;-69
2022/01/29 08:27:33;;;;;;;;;10.00;6.25;;;;;9.59;72.58;102852.59;5119484;27;45541;-70
2022/01/29 08:29:59;;;;;;;;;7.00;7.00;;;;;9.67;72.76;102858.13;5099775;27;45598;-71
2022/01/29 08:32:25;;;;;;;;;9.00;7.25;;;;;9.72;72.61;102870.53;5106526;27;45394;-70
2022/01/29 08:34:50;;;;;;;;;8.75;8.00;;;;;9.75;72.71;102857.59;5099482;27;45680;-72
2022/01/29 08:37:16;;;;;;;;;7.50;7.25;;;;;9.69;72.64;102848.63;5117567;27;46110;-71
2022/01/29 08:39:41;;;;;;;;;13.00;9.00;;;;;9.81;72.44;102862.19;5107175;27;46097;-69
2022/01/29 08:42:08;;;;;;;;;7.00;6.50;;;;;9.71;72.35;102849.56;5099530;27;45404;-72
2022/01/29 08:44:34;;;;;;;;;10.00;6.00;;;;;9.84;72.54;102875.38;5098603;27;45363;-70
2022/01/29 08:47:00;;;;;;;;;13.25;12.50;;;;;9.83;72.62;102867.47;5101749;27;45435;-70
2022/01/29 08:49:25;;;;;;;;;7.75;6.75;;;;;9.88;72.91;102872.06;5100183;27;45600;-70
2022/01/29 08:51:51;;;;;;;;;7.50;6.00;;;;;9.90;72.38;102867.78;5098574;27;45341;-72
2022/01/29 08:54:17;;;;;;;;;4.50;4.00;;;;;9.87;72.60;102866.75;5107230;27;45611;-71
2022/01/29 08:56:44;;;;;;;;;4.50;4.00;;;;;9.92;72.79;102862.59;5111926;27;45438;-71
2022/01/29 08:59:09;;;;;;;;;4.00;4.00;;;;;9.95;72.76;102862.72;5101226;27;45545;-71
2022/01/29 09:01:35;;;;;;;;;5.00;4.25;;;;;9.93;72.70;102860.03;5103055;27;45362;-71
2022/01/29 09:04:01;;;;;;;;;4.00;4.00;;;;;9.95;72.74;102863.59;5103215;27;45679;-71
2022/01/29 09:06:26;;;;;;;;;3.00;3.00;;;;;9.95;72.76;102858.38;5099585;27;45918;-71
2022/01/29 09:08:52;;;;;;;;;3.00;3.00;;;;;9.90;72.72;102852.06;5096532;27;45446;-71
2022/01/29 09:11:19;;;;;;;;;3.00;3.00;;;;;9.93;72.76;102841.69;5078120;27;46906;-68
2022/01/29 09:13:45;;;;;;;;;3.00;3.00;;;;;10.05;72.45;102858.72;5111931;27;45518;-70
2022/01/29 09:16:11;;;;;;;;;3.00;3.00;;;;;10.00;72.69;102845.44;5106417;27;45499;-72
2022/01/29 09:18:37;;;;;;;;;2.50;2.50;;;;;10.09;72.41;102852.78;5108546;27;45914;-71
2022/01/29 09:21:03;;;;;;;;;4.00;3.00;;;;;9.88;72.66;102824.06;5114377;27;45710;-69
2022/01/29 09:23:29;;;;;;;;;4.50;3.75;;;;;10.14;72.77;102849.47;5112931;27;45432;-70
2022/01/29 09:25:58;;;;;;;;;3.50;3.50;;;;;10.05;72.50;102829.94;5095045;27;45432;-70
2022/01/29 09:28:24;;;;;;;;;4.75;4.00;;;;;10.21;72.87;102858.47;5099213;27;45645;-68
2022/01/29 09:30:50;;;;;;;;;6.00;3.00;;;;;10.22;72.09;102849.75;5085842;27;45384;-68
2022/01/29 09:33:17;;;;;;;;;3.25;3.25;;;;;10.34;72.56;102849.34;5108355;27;45535;-70
2022/01/29 09:35:43;;;;;;;;;5.00;3.75;;;;;10.40;72.16;102841.75;5097873;27;46193;-68
2022/01/29 09:38:11;;;;;;;;;3.00;3.00;;;;;10.45;71.73;102849.75;5111010;27;46047;-69
2022/01/29 09:40:37;;;;;;;;;3.00;3.00;;;;;10.46;71.34;102831.47;5103146;27;45522;-70
2022/01/29 09:43:07;;;;;;;;;4.50;3.00;;;;;10.39;71.38;102800.66;5100097;27;45542;-70
2022/01/29 09:45:33;;;;;;;;;4.25;4.00;;;;;10.36;70.88;102785.72;5095587;27;46778;-69
2022/01/29 09:48:02;;;;;;;;;4.00;4.00;;;;;9.98;71.07;102706.63;5103012;27;45499;-69
2022/01/29 09:50:38;;;;;;;;;4.25;4.00;;;;;10.67;71.17;102817.34;5115429;27;45542;-70
2022/01/29 09:53:06;;;;;;;;;5.00;3.25;;;;;10.67;70.87;102830.44;5102479;27;45487;-69
2022/01/29 09:55:32;;;;;;;;;3.75;3.00;;;;;10.69;71.03;102837.53;5117108;27;45647;-70
2022/01/29 09:57:58;;;;;;;;;4.00;4.00;;;;;10.65;71.02;102833.00;5102709;27;45455;-71
2022/01/29 10:00:25;;;;;;;;;5.75;4.25;;;;;10.65;71.19;102825.16;5099883;27;45490;-69
2022/01/29 10:03:09;;;;;;;;;6.00;6.00;;;;;10.65;71.00;102832.13;5107198;27;45301;-69
2022/01/29 10:05:36;;;;;;;;;5.25;4.75;;;;;10.66;71.07;102833.94;5113114;27;45343;-68
2022/01/29 10:08:03;;;;;;;;;3.75;3.75;;;;;10.55;70.84;102831.78;5117682;27;45485;-69
2022/01/29 10:10:29;;;;;;;;;5.00;3.75;;;;;10.61;71.30;102860.84;5102332;27;45486;-69
2022/01/29 10:12:54;;;;;;;;;7.00;5.00;;;;;10.52;71.11;102836.94;5097230;27;45477;-69
2022/01/29 10:15:23;;;;;;;;;4.00;4.00;;;;;10.54;71.33;102843.13;5107989;27;45794;-69
2022/01/29 10:17:54;;;;;;;;;4.00;4.00;;;;;10.57;71.53;102858.06;5096808;27;45628;-69
2022/01/29 10:20:27;;;;;;;;;3.75;3.25;;;;;10.52;71.66;102843.91;5093290;27;45641;-69
2022/01/29 10:22:58;;;;;;;;;5.00;4.00;;;;;10.53;71.89;102854.44;5100012;27;45423;-70
2022/01/29 10:25:32;;;;;;;;;8.00;6.00;;;;;10.46;72.07;102841.94;5111324;27;46072;-69
2022/01/29 10:28:16;;;;;;;;;4.50;4.50;;;;;10.50;72.07;102849.09;5099400;27;45298;-70
2022/01/29 10:30:47;;;;;;;;;5.50;4.50;;;;;10.54;71.95;102858.84;5116920;27;45565;-69
2022/01/29 10:33:20;;;;;;;;;4.00;4.00;;;;;10.55;72.07;102855.38;5099559;27;45626;-68
2022/01/29 10:35:49;;;;;;;;;3.50;3.50;;;;;10.54;71.90;102855.34;5116866;27;45467;-69
2022/01/29 10:38:20;;;;;;;;;5.00;5.00;;;;;10.48;72.18;102829.78;5099790;27;45435;-68
2022/01/29 10:41:06;;;;;;;;;6.25;4.75;;;;;10.57;72.04;102838.00;5109481;27;45417;-68
2022/01/29 10:43:33;;;;;;;;;3.75;3.75;;;;;10.57;71.88;102847.59;5102197;27;45563;-71
2022/01/29 10:45:58;;;;;;;;;3.00;3.00;;;;;10.43;71.94;102831.38;5117597;27;46477;-69
2022/01/29 10:48:42;;;;;;;;;3.00;3.00;;;;;10.50;71.87;102833.38;5099778;27;45454;-68
2022/01/29 10:51:13;;;;;;;;;4.75;3.00;;;;;10.50;72.06;102820.25;5096658;27;45487;-70
2022/01/29 10:53:43;;;;;;;;;5.25;4.00;;;;;10.56;71.42;102830.09;5096180;27;45568;-68
2022/01/29 10:56:09;;;;;;;;;4.75;4.25;;;;;10.67;71.79;102839.19;5096518;27;45726;-70
2022/01/29 10:58:47;;;;;;;;;6.00;4.00;;;;;10.71;71.86;102834.97;5112787;27;45427;-69
2022/01/29 11:01:23;;;;;;;;;6.50;5.00;;;;;10.51;71.73;102798.50;5097684;27;45293;-68
2022/01/29 11:03:55;;;;;;;;;5.50;5.00;;;;;10.32;71.54;102768.13;5115411;27;45478;-68
2022/01/29 11:06:28;;;;;;;;;4.75;4.75;;;;;10.68;70.82;102832.22;5100718;27;45346;-69
2022/01/29 11:08:55;;;;;;;;;4.50;4.50;;;;;10.65;71.27;102826.88;5100327;27;45433;-69
2022/01/29 11:11:24;;;;;;;;;4.00;4.00;;;;;10.78;71.18;102834.34;5096858;27;45440;-70
2022/01/29 11:13:50;;;;;;;;;4.00;4.00;;;;;10.81;71.43;102843.19;5098682;27;45325;-69
2022/01/29 11:16:16;;;;;;;;;3.00;3.00;;;;;10.83;70.96;102838.91;5105807;27;46242;-68
2022/01/29 11:18:41;;;;;;;;;4.00;3.25;;;;;10.84;71.25;102847.66;5115563;27;45447;-68
2022/01/29 11:21:07;;;;;;;;;4.00;1.50;;;;;10.83;70.80;102836.28;5096381;27;45936;-69
2022/01/29 11:23:33;;;;;;;;;1.75;1.75;;;;;10.78;71.24;102836.97;5115144;27;45443;-68
2022/01/29 11:26:00;;;;;;;;;3.75;2.75;;;;;10.79;71.36;102841.34;5116595;27;46442;-67
2022/01/29 11:28:28;;;;;;;;;3.75;2.00;;;;;10.79;71.45;102842.25;5119937;27;45596;-70
2022/01/29 11:31:14;;;;;;;;;4.50;4.50;;;;;10.77;71.19;102841.31;5120140;27;45490;-70
2022/01/29 11:33:57;;;;;;;;;5.00;2.50;;;;;10.77;71.68;102846.56;5098063;27;45396;-69